createdAt,value
2023-04-18T00:04:09.073Z,84.70
2023-04-18T00:10:38.708Z,84.79
2023-04-18T00:16:48.166Z,84.33
2023-04-18T00:30:09.046Z,84.11
2023-04-18T00:37:04.574Z,84.32
2023-04-18T00:43:21.289Z,83.71
2023-04-18T01:02:24.276Z,83.67
2023-04-18T01:08:56.329Z,83.77
2023-04-18T01:15:12.195Z,83.29
2023-04-18T01:21:19.713Z,82.81
2023-04-18T01:34:28.065Z,82.93
2023-04-18T01:40:34.663Z,83.08
2023-04-18T01:46:49.004Z,83.08
2023-04-18T01:53:13.339Z,83.32
2023-04-18T01:59:37.126Z,82.75
2023-04-18T02:06:08.169Z,82.80
2023-04-18T02:12:11.203Z,82.15
2023-04-18T02:24:59.295Z,81.50
2023-04-18T02:37:29.395Z,81.06
2023-04-18T02:44:00.936Z,81.42
2023-04-18T02:50:15.909Z,81.27
2023-04-18T03:03:54.314Z,81.20
2023-04-18T03:10:08.244Z,81.73
2023-04-18T03:16:36.243Z,81.25
2023-04-18T03:22:55.950Z,81.68
2023-04-18T03:29:01.915Z,81.69
2023-04-18T03:35:32.809Z,81.70
2023-04-18T03:41:57.053Z,81.67
2023-04-18T03:48:26.723Z,82.05
2023-04-18T03:54:39.288Z,82.22
2023-04-18T04:00:57.824Z,82.14
2023-04-18T04:07:13.195Z,81.95
2023-04-18T04:56:34.359Z,83.26
2023-04-18T05:02:32.832Z,82.96
2023-04-18T05:15:21.805Z,83.04
2023-04-18T05:22:34.775Z,82.71
2023-04-18T05:34:46.371Z,82.67
2023-04-18T05:41:17.217Z,83.26
2023-04-18T05:47:53.660Z,83.29
2023-04-18T05:54:18.454Z,83.33
2023-04-18T06:00:34.505Z,83.61
2023-04-18T06:07:24.496Z,82.98
2023-04-18T06:13:37.138Z,82.51
2023-04-18T06:20:00.505Z,82.57
2023-04-18T06:26:30.536Z,82.30
2023-04-18T06:32:46.823Z,82.32
2023-04-18T06:39:02.286Z,81.73
2023-04-18T06:45:22.886Z,82.83
2023-04-18T06:58:01.800Z,82.26
2023-04-18T07:04:21.300Z,82.10
2023-04-18T07:10:48.739Z,80.95
2023-04-18T07:17:14.894Z,80.86
2023-04-18T07:23:35.228Z,79.55
2023-04-18T07:29:44.979Z,79.79
2023-04-18T07:36:02.472Z,78.56
2023-04-18T07:42:22.244Z,79.28
2023-04-18T07:49:15.623Z,75.88
2023-04-18T08:01:56.890Z,76.94
2023-04-18T08:09:16.917Z,77.88
2023-04-18T08:15:44.943Z,78.72
2023-04-18T08:21:58.433Z,77.76
2023-04-18T08:28:06.811Z,77.90
2023-04-18T08:34:20.673Z,77.02
2023-04-18T08:40:35.390Z,77.46
2023-04-18T08:47:28.791Z,77.82
2023-04-18T09:00:11.576Z,74.93
2023-04-18T09:06:21.194Z,76.45
2023-04-18T09:12:54.217Z,76.33
2023-04-18T09:26:04.689Z,75.68
2023-04-18T09:32:34.602Z,75.89
2023-04-18T09:38:47.310Z,75.99
2023-04-18T09:45:24.901Z,76.30
2023-04-18T09:51:56.465Z,76.05
2023-04-18T09:58:25.186Z,74.45
2023-04-18T10:05:21.319Z,73.16
2023-04-18T10:11:29.067Z,72.86
2023-04-18T10:18:03.548Z,72.64
2023-04-18T10:24:14.348Z,72.78
2023-04-18T10:30:57.655Z,72.77
2023-04-18T10:44:49.809Z,73.19
2023-04-18T10:51:26.726Z,75.67
2023-04-18T10:57:58.651Z,75.98
2023-04-18T11:04:44.886Z,76.19
2023-04-18T11:44:59.172Z,82.52
2023-04-18T11:51:45.616Z,82.72
2023-04-18T11:58:06.510Z,82.95
2023-04-18T12:05:09.035Z,83.67
2023-04-18T12:10:51.640Z,81.43
2023-04-18T12:17:37.929Z,82.24
2023-04-18T12:24:14.676Z,82.15
2023-04-18T12:30:38.120Z,81.68
2023-04-18T14:00:54.519Z,86.74
2023-04-18T14:14:50.104Z,86.49
2023-04-18T15:14:56.350Z,89.20
2023-04-18T15:29:00.595Z,90.16
2023-04-18T16:09:34.072Z,89.92
2023-04-18T16:29:28.122Z,87.14
2023-04-18T17:50:08.866Z,90.71
2023-04-18T17:57:15.190Z,89.59
2023-04-18T18:25:38.043Z,91.16
2023-04-18T18:38:02.752Z,91.47
2023-04-18T18:44:43.739Z,92.00
2023-04-18T18:57:11.496Z,93.13
2023-04-18T19:17:50.756Z,92.44
2023-04-18T19:24:19.529Z,92.41
2023-04-18T19:43:52.797Z,92.99
2023-04-18T19:56:19.629Z,93.65
2023-04-18T20:23:33.823Z,93.17
2023-04-18T20:44:22.422Z,92.53
2023-04-18T21:17:31.144Z,93.09
2023-04-18T21:23:54.696Z,92.65
2023-04-18T21:36:22.620Z,92.21
2023-04-18T21:42:52.902Z,92.56
2023-04-18T21:49:26.622Z,93.09
2023-04-18T21:55:50.406Z,93.38
2023-04-18T22:01:55.560Z,93.36
2023-04-18T22:27:47.779Z,94.29
2023-04-18T22:34:02.284Z,93.79
2023-04-18T22:40:27.865Z,93.72
2023-04-18T22:46:41.915Z,93.97
2023-04-18T22:52:52.459Z,93.56
2023-04-18T22:59:21.942Z,93.53
2023-04-18T23:05:36.206Z,93.38
2023-04-18T23:11:42.305Z,93.94
2023-04-18T23:18:24.266Z,93.70
2023-04-18T23:52:17.518Z,92.43
